Latest Weather Observations for Hobart

IDT60901

Issued at 2:11 am EST Saturday 30 May 2015 (issued every 10 minutes, with the page automatically refreshed every 10 minutes)

About weather observations | Map of Hobart area stations | Latest observations for Hobart area | Other Formats
Station Details ID: 094029 Name: HOBART (ELLERSLIE ROAD) Lat: -42.89 Lon: 147.33 Height: 50.5 m
Data from the previous 72 hours. | See also: Recent months at Hobart
Date/Time
EST
Tmp

°C
App
Tmp
°C
Dew
Point
°C
Rel
Hum
%
Delta-T

°C
Wind Press
QNH
hPa
Press
MSL
hPa
Rain
since
9 am
mm
Dir
 
Spd
km/h
Gust
km/h
Spd
kts
Gust
kts
30/02:00am 11.4 7.1 5.1 65 2.9 NNW 17 24 9 13 1008.5 1008.6 0.0
30/01:30am 11.2 7.9 4.8 64 2.9 NNW 11 20 6 11 1009.1 1009.2 0.0
30/01:00am 10.9 7.6 4.7 65 2.8 NNW 11 24 6 13 1009.5 1009.6 0.0
30/12:30am 10.7 7.8 4.7 66 2.7 NNW 9 19 5 10 1009.8 1009.9 0.0
30/12:00am 10.8 6.3 4.3 64 2.9 NNW 17 28 9 15 1010.1 1010.2 0.0
 
Date/Time
EST
Tmp

°C
App
Tmp
°C
Dew
Point
°C
Rel
Hum
%
Delta-T

°C
Wind Press
QNH
hPa
Press
MSL
hPa
Rain
since
9 am
mm
Dir
 
Spd
km/h
Gust
km/h
Spd
kts
Gust
kts
29/11:30pm 10.4 6.3 4.6 67 2.6 NNW 15 24 8 13 1010.4 1010.4 0.0
29/11:00pm 10.2 5.7 4.4 67 2.6 NW 17 26 9 14 1010.6 1010.6 0.0
29/10:30pm 10.2 6.1 4.1 66 2.7 N 15 22 8 12 1010.7 1010.7 0.0
29/10:00pm 10.3 6.5 3.7 63 2.9 NNW 13 24 7 13 1011.1 1011.1 0.0
29/09:30pm 10.2 6.0 3.9 65 2.8 NNW 15 26 8 14 1011.4 1011.4 0.0
29/09:00pm 10.0 5.5 4.1 67 2.6 NNW 17 22 9 12 1011.6 1011.6 0.0
29/08:30pm 10.2 5.6 3.6 63 2.9 N 17 28 9 15 1011.4 1011.4 0.0
29/08:00pm 10.1 4.5 3.7 64 2.8 NNW 22 32 12 17 1011.5 1011.5 0.0
29/07:30pm 10.4 5.2 3.3 61 3.1 NNW 20 28 11 15 1011.6 1011.6 0.0
29/07:00pm 10.1 5.6 4.0 66 2.7 NNW 17 28 9 15 1011.6 1011.6 0.0
29/06:30pm 10.3 6.1 3.7 63 2.9 NW 15 24 8 13 1011.5 1011.5 0.0
29/06:00pm 10.3 6.5 4.0 65 2.8 NNW 13 19 7 10 1011.2 1011.4 0.0
29/05:30pm 10.0 8.0 4.4 68 2.5 NE 4 9 2 5 1011.3 1011.3 0.0
29/05:00pm 10.2 6.4 3.9 65 2.8 NNW 13 20 7 11 1011.3 1011.3 0.0
29/04:30pm 10.5 5.9 3.7 63 3.0 NW 17 32 9 17 1011.6 1011.6 0.0
29/04:00pm 10.7 6.5 4.0 63 3.0 NW 15 26 8 14 1011.6 1011.6 0.0
29/03:30pm 11.9 7.0 1.9 50 4.3 NNW 17 26 9 14 1011.0 1011.0 0.0
29/03:00pm 11.9 6.0 1.6 49 4.4 NNW 22 39 12 21 1011.1 1011.1 0.0
29/02:30pm 11.9 6.7 2.2 51 4.2 NW 19 28 10 15 1010.9 1010.9 0.0
29/02:00pm 12.0 6.5 2.0 50 4.3 NNW 20 33 11 18 1010.9 1010.9 0.0
29/01:30pm 12.3 6.0 1.5 47 4.6 N 24 39 13 21 1010.5 1010.5 0.0
29/01:00pm 11.3 4.9 1.0 49 4.3 NNW 24 39 13 21 1010.7 1010.7 0.0
29/12:30pm 11.2 5.5 0.6 48 4.4 NNW 20 33 11 18 1010.7 1010.7 0.0
29/12:00pm 10.4 4.8 1.3 53 3.8 NNW 20 35 11 19 1010.6 1010.6 0.0
29/11:30am 10.3 3.1 0.9 52 3.9 NNW 28 39 15 21 1010.7 1010.7 0.0
29/11:00am 9.3 3.3 1.3 57 3.3 NNE 22 39 12 21 1011.0 1011.0 0.0
29/10:30am 8.9 3.0 1.7 60 3.0 N 22 41 12 22 1011.0 1011.0 0.0
29/10:10am 8.0 0.8 0.8 60 2.9 N 28 46 15 25 1011.3 1011.3 0.0
29/10:00am 8.1 0.6 0.9 60 2.9 N 30 43 16 23 1011.2 1011.2 0.0
29/09:30am 7.3 1.4 1.4 66 2.4 N 22 32 12 17 1011.0 1011.0 0.0
29/09:00am 7.4 1.8 1.2 65 2.5 N 20 28 11 15 1011.3 1011.3 2.4
29/08:30am 7.1 0.3 0.5 63 2.6 N 26 37 14 20 1011.3 1011.3 2.4
29/08:19am 7.0 -0.2 0.4 63 2.6 N 28 46 15 25 1010.9 1010.9 2.4
29/08:00am 6.9 -1.1 0.6 64 2.5 N 32 44 17 24 1010.5 1010.5 2.4
29/07:50am 6.9 -0.3 0.6 64 2.5 N 28 44 15 24 1010.4 1010.4 2.4
29/07:30am 6.9 2.1 0.0 61 2.7 NNW 15 26 8 14 1009.8 1009.9 2.4
29/06:30am 6.7 0.2 0.0 62 2.6 NNW 24 35 13 19 1008.7 1008.8 2.4
29/05:30am 6.3 0.2 0.4 66 2.3 NW 22 33 12 18 1008.1 1008.2 2.4
29/05:02am 6.2 -1.7 0.9 69 2.1 NW 32 50 17 27 1007.7 1007.8 2.4
29/05:00am 6.2 -1.7 0.9 69 2.1 NW 32 46 17 25 1007.7 1007.8 2.2
29/04:33am 6.3 -0.8 1.6 72 1.9 WNW 28 48 15 26 1007.8 1007.9 2.2
29/04:30am 6.0 -0.5 2.6 79 1.4 NW 26 35 14 19 1007.9 1008.0 2.2
29/04:04am 6.8 -0.3 1.6 69 2.1 NW 28 46 15 25 1007.4 1007.5 1.6
29/04:00am 6.5 0.3 2.1 73 1.8 WNW 24 44 13 24 1007.4 1007.5 1.6
29/03:30am 6.2 1.1 3.1 80 1.3 NNW 19 28 10 15 1007.2 1007.3 1.4
29/03:00am 6.6 0.4 2.2 73 1.8 NW 24 32 13 17 1007.1 1007.2 1.4
29/02:30am 6.8 -0.6 1.9 71 2.0 NW 30 41 16 22 1006.6 1006.7 1.4
29/02:03am 7.3 0.4 2.8 73 1.9 NW 28 46 15 25 1007.0 1007.1 1.2
29/02:00am 7.4 0.1 2.4 70 2.1 NW 30 46 16 25 1007.0 1007.1 1.2
29/01:57am 7.3 0.4 2.8 73 1.9 NW 28 46 15 25 1007.2 1007.3 1.2
29/01:30am 7.9 1.3 2.1 67 2.4 NW 26 44 14 24 1006.7 1006.8 0.8
29/01:06am 8.2 0.4 1.4 62 2.8 NW 32 52 17 28 1006.0 1006.1 0.8
29/01:00am 8.2 0.7 1.4 62 2.8 NW 30 41 16 22 1006.0 1006.1 0.8
29/12:40am 8.5 1.0 1.2 60 3.0 NW 30 52 16 28 1005.8 1005.9 0.8
29/12:30am 8.4 1.8 1.9 63 2.7 NW 26 44 14 24 1005.9 1006.0 0.8
29/12:00am 9.1 2.7 1.1 57 3.3 NW 24 39 13 21 1006.0 1006.1 0.8
 
Date/Time
EST
Tmp

°C
App
Tmp
°C
Dew
Point
°C
Rel
Hum
%
Delta-T

°C
Wind Press
QNH
hPa
Press
MSL
hPa
Rain
since
9 am
mm
Dir
 
Spd
km/h
Gust
km/h
Spd
kts
Gust
kts
28/11:30pm 9.1 2.9 2.0 61 3.0 NW 24 39 13 21 1005.5 1005.6 0.8
28/11:00pm 9.2 3.5 2.6 63 2.8 NW 22 35 12 19 1005.6 1005.7 0.8
28/10:30pm 9.5 3.4 2.5 61 3.0 NW 24 39 13 21 1005.7 1005.8 0.8
28/10:00pm 9.7 3.7 3.5 65 2.7 NNW 24 35 13 19 1005.5 1005.6 0.8
28/09:30pm 10.0 3.7 3.6 64 2.8 NW 26 39 14 21 1005.6 1005.7 0.8
28/09:00pm 10.0 5.0 4.7 69 2.4 NW 20 30 11 16 1005.6 1005.7 0.8
28/08:30pm 10.0 5.2 4.7 69 2.4 NW 19 28 10 15 1005.5 1005.6 0.8
28/08:00pm 10.9 5.1 4.2 63 3.0 NW 24 41 13 22 1005.6 1005.7 0.8
28/07:30pm 10.7 5.9 5.5 70 2.4 NNW 20 32 11 17 1004.9 1005.0 0.8
28/07:00pm 10.5 6.4 6.0 74 2.1 NW 17 26 9 14 1004.7 1004.8 0.8
28/06:30pm 10.5 7.6 6.5 76 1.9 NNW 11 17 6 9 1004.6 1004.7 0.8
28/06:00pm 11.0 6.9 6.3 73 2.2 NW 17 24 9 13 1004.5 1004.6 0.8
28/05:36pm 11.9 5.7 6.0 67 2.8 NW 28 46 15 25 1004.6 1004.7 0.8
28/05:30pm 12.1 5.4 5.5 64 3.1 NW 30 46 16 25 1004.4 1004.5 0.8
28/05:00pm 12.2 5.7 6.3 67 2.8 NW 30 48 16 26 1003.9 1004.0 0.8
28/04:30pm 14.2 7.0 4.8 53 4.4 NW 32 50 17 27 1003.2 1003.3 0.2
28/04:00pm 14.8 7.9 4.6 50 4.8 NNW 30 50 16 27 1002.8 1002.9 0.2
28/03:54pm 15.1 8.3 3.3 45 5.4 NW 28 50 15 27 1002.7 1002.8 0.2
28/03:30pm 14.7 9.6 6.0 56 4.2 NNW 22 35 12 19 1002.8 1002.9 0.2
28/03:00pm 14.9 9.9 6.5 57 4.1 NNW 22 32 12 17 1003.1 1003.2 0.2
28/02:30pm 14.8 8.4 5.4 53 4.5 NW 28 46 15 25 1003.2 1003.3 0.2
28/02:27pm 14.5 8.2 5.7 55 4.2 NW 28 46 15 25 1003.2 1003.3 0.2
28/02:00pm 14.3 8.9 6.5 59 3.8 NNW 24 44 13 24 1003.8 1003.9 0.2
28/01:30pm 14.6 7.7 6.6 58 3.9 NNW 32 50 17 27 1004.5 1004.6 0.0
28/01:00pm 16.2 8.6 4.0 44 5.7 NNW 33 52 18 28 1004.3 1004.4 0.0
28/12:32pm 16.9 10.2 3.9 42 6.1 NNW 28 52 15 28 1004.8 1004.9 0.0
28/12:30pm 17.3 11.5 4.5 42 6.1 NNW 24 39 13 21 1004.8 1004.9 0.0
28/12:00pm 17.3 11.5 4.5 42 6.1 NNW 24 44 13 24 1005.5 1005.6 0.0
28/11:38am 16.1 9.4 3.6 43 5.8 NNW 28 48 15 26 1006.0 1006.1 0.0
28/11:30am 16.3 10.0 3.6 42 5.9 NNW 26 44 14 24 1006.1 1006.2 0.0
28/11:23am 16.2 9.6 4.0 44 5.7 NNW 28 46 15 25 1006.3 1006.4 0.0
28/11:00am 16.0 11.5 4.3 45 5.5 NNW 17 30 9 16 1006.8 1006.9 0.0
28/10:30am 16.0 11.1 4.0 44 5.6 NNW 19 32 10 17 1007.5 1007.6 0.0
28/10:00am 14.9 12.1 5.2 52 4.6 NNW 9 19 5 10 1007.8 1007.9 0.0
28/09:30am 13.3 8.9 4.9 57 3.9 NNW 17 24 9 13 1008.2 1008.3 0.0
28/09:00am 12.5 10.0 4.9 60 3.5 N 7 13 4 7 1008.4 1008.5 0.0
28/08:30am 10.5 8.1 5.3 70 2.4 WNW 7 11 4 6 1008.5 1008.6 0.0
28/08:00am 11.1 7.9 5.0 66 2.8 NW 11 17 6 9 1008.7 1008.8 0.0
28/07:30am 11.5 7.0 4.4 61 3.2 NNW 17 22 9 12 1008.7 1008.8 0.0
28/07:00am 11.7 7.3 4.7 62 3.2 N 17 26 9 14 1008.8 1008.9 0.0
28/06:30am 11.8 7.5 5.1 63 3.1 N 17 28 9 15 1008.7 1008.8 0.0
28/06:00am 12.1 7.8 5.2 62 3.2 NNW 17 24 9 13 1008.5 1008.6 0.0
28/05:30am 12.2 8.7 5.6 64 3.1 NNW 13 20 7 11 1008.6 1008.7 0.0
28/05:00am 12.4 9.0 5.8 64 3.1 N 13 19 7 10 1008.6 1008.7 0.0
28/04:30am 13.1 10.0 5.4 59 3.6 N 11 20 6 11 1009.3 1009.4 0.0
28/04:00am 13.4 9.4 5.0 57 3.9 N 15 22 8 12 1009.5 1009.6 0.0
28/03:30am 12.9 8.6 5.2 59 3.6 NNW 17 24 9 13 1009.6 1009.7 0.0
28/03:00am 12.7 8.9 5.9 63 3.2 NW 15 24 8 13 1009.8 1009.9 0.0
28/02:30am 12.6 8.9 6.5 66 2.9 NNW 15 20 8 11 1010.0 1010.1 0.0
28/02:00am 12.7 9.1 6.7 67 2.9 NW 15 22 8 12 1010.1 1010.2 0.0
28/01:30am 12.9 9.2 6.2 64 3.2 NNW 15 20 8 11 1010.2 1010.3 0.0
28/01:00am 14.0 10.0 5.0 54 4.2 NNW 15 28 8 15 1010.4 1010.4 0.0
28/12:30am 14.6 9.3 4.8 52 4.6 NNW 22 44 12 24 1010.8 1010.8 0.0
28/12:00am 14.2 9.7 6.3 59 3.8 NNW 19 33 10 18 1011.2 1011.2 0.0
 
Date/Time
EST
Tmp

°C
App
Tmp
°C
Dew
Point
°C
Rel
Hum
%
Delta-T

°C
Wind Press
QNH
hPa
Press
MSL
hPa
Rain
since
9 am
mm
Dir
 
Spd
km/h
Gust
km/h
Spd
kts
Gust
kts
27/11:30pm 13.0 10.6 7.0 67 2.9 WNW 9 17 5 9 1011.5 1011.5 0.0
27/11:00pm 12.8 11.1 7.5 70 2.6 SW 6 7 3 4 1011.2 1011.2 0.0
27/10:30pm 12.2 10.5 7.5 73 2.3 SSE 6 9 3 5 1011.0 1011.0 0.0
27/10:00pm 11.9 10.9 7.4 74 2.2 SE 2 6 1 3 1011.0 1011.0 0.0
27/09:30pm 11.3 10.2 7.1 75 2.0 NNW 2 7 1 4 1011.4 1011.4 0.0
27/09:00pm 11.7 8.9 7.1 73 2.2 NNW 11 19 6 10 1011.6 1011.6 0.0
27/08:30pm 12.0 6.7 6.8 70 2.5 NNW 24 32 13 17 1011.5 1011.5 0.0
27/08:00pm 12.1 7.8 6.9 70 2.5 NNW 19 26 10 14 1011.7 1011.7 0.0
27/07:30pm 12.6 7.3 7.0 68 2.7 NNW 24 33 13 18 1011.6 1011.6 0.0
27/07:00pm 12.4 8.0 7.2 70 2.5 NNW 20 26 11 14 1011.8 1011.8 0.0
27/06:30pm 12.3 8.4 7.1 70 2.5 NNW 17 24 9 13 1011.8 1011.8 0.0
27/06:00pm 12.6 10.3 7.5 71 2.5 NNW 9 15 5 8 1012.1 1012.1 0.0
27/05:30pm 12.2 10.5 7.7 74 2.2 NNW 6 9 3 5 1012.1 1012.1 0.0
27/05:00pm 12.6 11.3 7.7 72 2.4 NNW 4 9 2 5 1012.2 1012.2 0.0
27/04:30pm 13.2 11.9 7.5 68 2.8 WNW 4 11 2 6 1012.2 1012.2 0.0
27/04:00pm 13.2 11.6 8.2 71 2.5 SE 6 7 3 4 1012.4 1012.4 0.0
27/03:30pm 14.0 11.3 7.3 64 3.3 NNW 11 17 6 9 1012.5 1012.5 0.0
27/03:00pm 15.0 12.0 7.6 61 3.7 NNW 13 20 7 11 1012.5 1012.5 0.0
27/02:30pm 14.6 11.6 7.5 62 3.5 NNW 13 17 7 9 1012.8 1012.8 0.0
27/02:00pm 14.4 10.6 7.5 63 3.4 NW 17 24 9 13 1013.0 1013.0 0.0
27/01:30pm 14.2 10.8 7.5 64 3.3 NNW 15 20 8 11 1013.5 1013.5 0.0
27/01:00pm 14.5 11.0 7.2 61 3.6 NNW 15 19 8 10 1013.9 1013.9 0.0
27/12:30pm 12.4 8.4 6.8 68 2.7 NNW 17 26 9 14 1014.3 1014.3 0.0
27/12:00pm 12.5 8.1 6.4 66 2.9 NNW 19 26 10 14 1015.0 1015.0 0.0
27/11:30am 11.5 6.4 5.9 68 2.6 NNW 22 33 12 18 1015.4 1015.4 0.0
27/11:00am 10.8 6.2 5.6 70 2.4 N 19 28 10 15 1016.3 1016.3 0.0
27/10:30am 8.3 4.8 5.4 82 1.3 N 13 17 7 9 1017.1 1017.1 0.0
27/10:00am 7.7 4.6 5.5 86 1.0 NNE 11 17 6 9 1017.3 1017.3 0.0
27/09:30am 7.2 4.1 5.4 88 0.8 NNW 11 20 6 11 1017.5 1017.5 0.0
27/09:00am 6.8 2.1 5.0 88 0.8 NNW 19 24 10 13 1017.7 1017.7 0.0
27/08:30am 6.9 2.2 5.3 89 0.7 NNW 19 22 10 12 1017.9 1017.9 0.0
27/08:00am 7.1 2.3 5.5 89 0.7 NNW 20 28 11 15 1018.0 1018.0 0.0
27/07:30am 6.2 2.2 4.8 91 0.6 NW 15 24 8 13 1018.3 1018.3 0.0
27/07:00am 6.6 2.3 5.2 91 0.6 WNW 17 26 9 14 1018.5 1018.6 0.0
27/06:30am 5.9 2.2 4.7 92 0.5 NNW 13 22 7 12 1018.5 1018.6 0.0
27/06:00am 5.8 2.1 4.6 92 0.5 NNW 13 24 7 13 1018.8 1018.9 0.0
27/05:30am 6.5 2.2 5.1 91 0.6 NNW 17 22 9 12 1019.0 1019.1 0.0
27/05:00am 6.8 2.2 5.4 91 0.6 NNW 19 24 10 13 1019.3 1019.4 0.0
27/04:30am 6.9 2.3 5.8 93 0.5 NNW 19 26 10 14 1019.4 1019.5 0.0
27/04:00am 6.6 2.7 5.5 93 0.5 NNW 15 26 8 14 1019.9 1020.0 0.0
27/03:30am 6.6 3.2 5.7 94 0.4 N 13 19 7 10 1020.4 1020.5 0.0
27/03:00am 6.6 3.1 5.5 93 0.5 NW 13 19 7 10 1021.0 1021.1 0.0
27/02:30am 6.6 3.5 5.7 94 0.4 NW 11 15 6 8 1021.3 1021.4 0.0

Latest Capital City Observations: Canberra | Sydney | Melbourne | Brisbane | Adelaide | Perth | Hobart | Darwin

Other Formats:

Comma delimited format used in spreadsheet applications
http://www.bom.gov.au/fwo/IDT60901/IDT60901.94970.axf

JavaScript Object Notation format (JSON) in row-major order
http://www.bom.gov.au/fwo/IDT60901/IDT60901.94970.json